createdAt,value
2018-12-21T00:00:38.268Z,1005.98
2018-12-21T00:01:38.258Z,1005.94
2018-12-21T00:02:38.253Z,1005.94
2018-12-21T00:03:38.245Z,1005.99
2018-12-21T00:04:38.249Z,1005.99
2018-12-21T00:05:38.212Z,1005.97
2018-12-21T00:06:38.201Z,1006.03
2018-12-21T00:07:38.191Z,1006.03
2018-12-21T00:08:38.179Z,1006.08
2018-12-21T00:09:38.186Z,1006.10
2018-12-21T00:10:38.158Z,1006.08
2018-12-21T00:11:38.151Z,1006.14
2018-12-21T00:12:38.139Z,1006.08
2018-12-21T00:13:38.125Z,1006.09
2018-12-21T00:14:38.132Z,1006.10
2018-12-21T00:15:38.100Z,1006.04
2018-12-21T00:16:38.089Z,1006.03
2018-12-21T00:17:38.096Z,1006.03
2018-12-21T00:18:38.069Z,1006.04
2018-12-21T00:19:38.074Z,1005.99
2018-12-21T00:20:38.076Z,1006.03
2018-12-21T00:21:38.085Z,1005.98
2018-12-21T00:22:38.027Z,1005.95
2018-12-21T00:23:38.109Z,1005.91
2018-12-21T00:24:38.020Z,1005.85
2018-12-21T00:25:38.021Z,1005.89
2018-12-21T00:26:37.983Z,1005.91
2018-12-21T00:27:37.970Z,1005.82
2018-12-21T00:28:37.973Z,1005.83
2018-12-21T00:29:37.961Z,1005.79
2018-12-21T00:30:37.937Z,1005.74
2018-12-21T00:31:37.939Z,1005.72
2018-12-21T00:32:37.932Z,1005.71
2018-12-21T00:33:37.902Z,1005.67
2018-12-21T00:34:37.906Z,1005.68
2018-12-21T00:35:37.889Z,1005.63
2018-12-21T00:36:37.874Z,1005.59
2018-12-21T00:37:37.861Z,1005.64
2018-12-21T00:38:37.852Z,1005.61
2018-12-21T00:39:37.853Z,1005.60
2018-12-21T00:40:37.828Z,1005.56
2018-12-21T00:41:37.839Z,1005.55
2018-12-21T00:42:37.810Z,1005.50
2018-12-21T00:43:37.819Z,1005.53
2018-12-21T00:44:37.792Z,1005.54
2018-12-21T00:45:37.777Z,1005.46
2018-12-21T00:46:37.759Z,1005.54
2018-12-21T00:47:37.750Z,1005.60
2018-12-21T00:48:37.747Z,1005.50
2018-12-21T00:49:37.737Z,1005.47
2018-12-21T00:50:37.719Z,1005.49
2018-12-21T00:51:37.709Z,1005.43
2018-12-21T00:52:37.691Z,1005.40
2018-12-21T00:53:37.686Z,1005.38
2018-12-21T00:54:37.689Z,1005.34
2018-12-21T00:55:37.685Z,1005.37
2018-12-21T00:56:37.663Z,1005.38
2018-12-21T00:57:37.639Z,1005.28
2018-12-21T00:58:37.673Z,1005.30
2018-12-21T00:59:37.994Z,1005.30
2018-12-21T01:00:37.606Z,1005.33
2018-12-21T01:01:37.593Z,1005.33
2018-12-21T01:02:37.583Z,1005.34
2018-12-21T01:03:37.573Z,1005.37
2018-12-21T01:04:37.566Z,1005.40
2018-12-21T01:05:37.567Z,1005.35
2018-12-21T01:06:37.554Z,1005.41
2018-12-21T01:07:37.529Z,1005.49
2018-12-21T01:08:37.515Z,1005.43
2018-12-21T01:09:37.504Z,1005.44
2018-12-21T01:10:37.509Z,1005.47
2018-12-21T01:11:37.491Z,1005.45
2018-12-21T01:12:37.471Z,1005.43
2018-12-21T01:13:37.466Z,1005.41
2018-12-21T01:14:37.463Z,1005.41
2018-12-21T01:15:37.450Z,1005.47
2018-12-21T01:16:37.429Z,1005.44
2018-12-21T01:17:37.434Z,1005.42
2018-12-21T01:18:37.408Z,1005.44
2018-12-21T01:19:37.393Z,1005.46
2018-12-21T01:20:37.407Z,1005.35
2018-12-21T01:21:38.933Z,1005.39
2018-12-21T01:22:37.365Z,1005.32
2018-12-21T01:23:37.364Z,1005.33
2018-12-21T01:24:37.382Z,1005.39
2018-12-21T01:25:37.337Z,1005.39
2018-12-21T01:26:37.315Z,1005.31
2018-12-21T01:27:37.320Z,1005.34
2018-12-21T01:28:37.297Z,1005.41
2018-12-21T01:29:37.286Z,1005.39
2018-12-21T01:30:37.289Z,1005.40
2018-12-21T01:31:37.261Z,1005.39
2018-12-21T01:32:37.249Z,1005.44
2018-12-21T01:33:37.242Z,1005.40
2018-12-21T01:34:37.238Z,1005.45
2018-12-21T01:35:37.250Z,1005.45
2018-12-21T01:36:37.204Z,1005.48
2018-12-21T01:37:37.200Z,1005.46
2018-12-21T01:38:37.184Z,1005.43
2018-12-21T01:39:37.173Z,1005.41
2018-12-21T01:40:37.177Z,1005.44
2018-12-21T01:41:37.159Z,1005.40
2018-12-21T01:42:37.141Z,1005.46
2018-12-21T01:43:37.131Z,1005.35
2018-12-21T01:44:37.117Z,1005.32
2018-12-21T01:45:37.128Z,1005.29
2018-12-21T01:46:37.097Z,1005.21
2018-12-21T01:47:37.100Z,1005.20
2018-12-21T01:48:37.073Z,1005.13
2018-12-21T01:49:37.065Z,1005.10
2018-12-21T01:50:37.065Z,1005.12
2018-12-21T01:51:37.052Z,1005.07
2018-12-21T01:52:37.060Z,1005.04
2018-12-21T01:53:37.025Z,1004.99
2018-12-21T01:54:37.017Z,1005.06
2018-12-21T01:55:37.015Z,1005.02
2018-12-21T01:56:36.988Z,1005.12
2018-12-21T01:57:36.997Z,1005.06
2018-12-21T01:58:36.963Z,1005.13
2018-12-21T01:59:36.949Z,1005.03
2018-12-21T02:00:36.956Z,1005.10
2018-12-21T02:01:36.929Z,1005.13
2018-12-21T02:02:36.929Z,1005.15
2018-12-21T02:03:36.909Z,1005.18
2018-12-21T02:04:36.895Z,1005.18
2018-12-21T02:05:36.943Z,1005.16
2018-12-21T02:06:36.874Z,1005.20
2018-12-21T02:07:36.875Z,1005.19
2018-12-21T02:08:36.862Z,1005.15
2018-12-21T02:09:36.926Z,1005.16
2018-12-21T02:10:36.856Z,1005.20
2018-12-21T02:11:36.819Z,1005.14
2018-12-21T02:12:36.808Z,1005.18
2018-12-21T02:13:36.820Z,1005.14
2018-12-21T02:14:36.802Z,1005.13
2018-12-21T02:15:36.783Z,1005.13
2018-12-21T02:16:36.764Z,1005.12
2018-12-21T02:17:36.779Z,1005.14
2018-12-21T02:18:36.745Z,1005.09
2018-12-21T02:19:36.737Z,1005.06
2018-12-21T02:20:36.757Z,1005.03
2018-12-21T02:21:36.710Z,1005.01
2018-12-21T02:22:36.700Z,1005.00
2018-12-21T02:23:36.694Z,1004.97
2018-12-21T02:24:36.693Z,1004.97
2018-12-21T02:25:36.696Z,1004.99
2018-12-21T02:26:36.656Z,1004.96
2018-12-21T02:27:36.662Z,1004.97
2018-12-21T02:28:36.630Z,1004.95
2018-12-21T02:29:36.620Z,1004.92
2018-12-21T02:30:36.632Z,1004.90
2018-12-21T02:32:45.333Z,1004.80
2018-12-21T02:33:45.332Z,1004.79
2018-12-21T02:34:45.307Z,1004.75
2018-12-21T02:35:45.329Z,1004.79
2018-12-21T02:36:45.284Z,1004.73
2018-12-21T02:37:45.274Z,1004.76
2018-12-21T02:38:45.268Z,1004.76
2018-12-21T02:39:45.252Z,1004.69
2018-12-21T02:40:45.253Z,1004.75
2018-12-21T02:41:45.227Z,1004.77
2018-12-21T02:42:45.223Z,1004.76
2018-12-21T02:43:45.212Z,1004.72
2018-12-21T02:44:45.210Z,1004.73
2018-12-21T02:45:45.217Z,1004.70
2018-12-21T02:46:45.199Z,1004.73
2018-12-21T02:47:45.259Z,1004.68
2018-12-21T02:48:45.151Z,1004.69
2018-12-21T02:49:45.140Z,1004.68
2018-12-21T02:50:45.146Z,1004.61
2018-12-21T02:51:45.121Z,1004.64
2018-12-21T02:52:45.108Z,1004.63
2018-12-21T02:53:45.098Z,1004.58
2018-12-21T02:54:45.087Z,1004.55
2018-12-21T02:55:45.099Z,1004.53
2018-12-21T02:56:45.089Z,1004.55
2018-12-21T02:57:45.053Z,1004.50
2018-12-21T02:58:45.068Z,1004.45
2018-12-21T02:59:45.032Z,1004.46
2018-12-21T03:00:45.032Z,1004.38
2018-12-21T03:01:45.020Z,1004.39
2018-12-21T03:02:45.036Z,1004.38
2018-12-21T03:03:44.987Z,1004.36
2018-12-21T03:04:44.982Z,1004.41
2018-12-21T03:05:44.986Z,1004.32
2018-12-21T03:06:44.962Z,1004.32
2018-12-21T03:07:44.948Z,1004.29
2018-12-21T03:08:44.932Z,1004.28
2018-12-21T03:09:44.927Z,1004.26
2018-12-21T03:10:44.917Z,1004.27
2018-12-21T03:11:44.916Z,1004.23
2018-12-21T03:12:44.891Z,1004.23
2018-12-21T03:13:44.889Z,1004.23
2018-12-21T03:14:44.867Z,1004.22
2018-12-21T03:15:44.969Z,1004.21
2018-12-21T03:16:44.865Z,1004.16
2018-12-21T03:17:44.836Z,1004.18
2018-12-21T03:18:44.846Z,1004.10
2018-12-21T03:19:44.807Z,1004.10
2018-12-21T03:20:44.799Z,1004.07
2018-12-21T03:21:44.802Z,1004.09
2018-12-21T03:22:44.777Z,1004.06
2018-12-21T03:23:44.770Z,1004.03
2018-12-21T03:24:44.759Z,1003.95
2018-12-21T03:25:44.744Z,1003.99
2018-12-21T03:26:44.741Z,1003.95
2018-12-21T03:27:44.721Z,1003.93
2018-12-21T03:28:44.712Z,1003.86
2018-12-21T03:29:44.736Z,1003.92
2018-12-21T03:30:44.700Z,1003.88
2018-12-21T03:31:44.702Z,1003.89
2018-12-21T03:32:44.668Z,1003.86
2018-12-21T03:33:44.654Z,1003.77
2018-12-21T03:34:44.662Z,1003.73
2018-12-21T03:35:44.646Z,1003.63
2018-12-21T03:36:44.637Z,1003.71
2018-12-21T03:37:44.613Z,1003.68
2018-12-21T03:38:44.604Z,1003.66
2018-12-21T03:39:44.587Z,1003.65
2018-12-21T03:40:44.594Z,1003.60
2018-12-21T03:41:44.582Z,1003.55
2018-12-21T03:42:44.568Z,1003.57
2018-12-21T03:43:44.549Z,1003.56
2018-12-21T03:44:44.547Z,1003.49
2018-12-21T03:45:44.527Z,1003.44
2018-12-21T03:46:44.522Z,1003.43
2018-12-21T03:47:44.505Z,1003.42
2018-12-21T03:48:44.490Z,1003.43
2018-12-21T03:49:44.475Z,1003.52
2018-12-21T03:50:44.481Z,1003.47
2018-12-21T03:51:44.468Z,1003.48
2018-12-21T03:52:44.439Z,1003.43
2018-12-21T03:53:44.441Z,1003.45
2018-12-21T03:54:44.434Z,1003.39
2018-12-21T03:55:44.407Z,1003.31
2018-12-21T03:56:44.429Z,1003.30
2018-12-21T03:57:44.396Z,1003.29
2018-12-21T03:58:44.402Z,1003.30
2018-12-21T03:59:44.375Z,1003.30
2018-12-21T04:00:44.366Z,1003.33
2018-12-21T04:01:44.375Z,1003.31
2018-12-21T04:02:44.341Z,1003.36
2018-12-21T04:03:44.317Z,1003.35
2018-12-21T04:04:44.313Z,1003.36
2018-12-21T04:05:44.298Z,1003.36
2018-12-21T04:06:44.311Z,1003.31
2018-12-21T04:07:44.281Z,1003.33
2018-12-21T04:08:44.289Z,1003.37
2018-12-21T04:09:44.268Z,1003.39
2018-12-21T04:10:44.251Z,1003.37
2018-12-21T04:11:44.250Z,1003.39
2018-12-21T04:12:44.232Z,1003.33
2018-12-21T04:13:44.216Z,1003.35
2018-12-21T04:14:44.197Z,1003.33
2018-12-21T04:15:44.190Z,1003.31
2018-12-21T04:16:44.188Z,1003.32
2018-12-21T04:17:44.165Z,1003.34
2018-12-21T04:18:44.148Z,1003.33
2018-12-21T04:19:44.140Z,1003.26
2018-12-21T04:20:44.129Z,1003.26
2018-12-21T04:21:44.127Z,1003.23
2018-12-21T04:22:44.107Z,1003.27
2018-12-21T04:23:44.123Z,1003.22
2018-12-21T04:24:44.103Z,1003.19
2018-12-21T04:25:44.129Z,1003.15
2018-12-21T04:26:44.088Z,1003.15
2018-12-21T04:27:44.067Z,1003.08
2018-12-21T04:28:44.041Z,1003.08
2018-12-21T04:29:44.029Z,1003.02
2018-12-21T04:30:44.018Z,1002.97
2018-12-21T04:31:44.099Z,1003.04
2018-12-21T04:32:44.009Z,1002.98
2018-12-21T04:33:43.982Z,1002.99
2018-12-21T04:34:43.985Z,1002.96
2018-12-21T04:35:43.964Z,1002.95
2018-12-21T04:36:43.973Z,1002.94
2018-12-21T04:37:43.942Z,1002.93
2018-12-21T04:38:43.935Z,1002.94
2018-12-21T04:39:43.917Z,1002.95
2018-12-21T04:40:43.918Z,1002.93
2018-12-21T04:41:43.926Z,1002.88
2018-12-21T04:42:43.907Z,1002.83
2018-12-21T04:43:43.876Z,1002.76
2018-12-21T04:44:43.865Z,1002.82
2018-12-21T04:45:43.856Z,1002.81
2018-12-21T04:46:43.852Z,1002.74
2018-12-21T04:47:43.846Z,1002.74
2018-12-21T04:48:43.856Z,1002.75
2018-12-21T04:49:43.811Z,1002.68
2018-12-21T04:50:43.798Z,1002.62
2018-12-21T04:51:43.805Z,1002.67
2018-12-21T04:52:43.806Z,1002.60
2018-12-21T04:53:43.785Z,1002.60
2018-12-21T04:54:43.751Z,1002.63
2018-12-21T04:55:43.747Z,1002.71
2018-12-21T04:56:43.751Z,1002.68
2018-12-21T04:57:43.744Z,1002.66
2018-12-21T04:58:43.718Z,1002.69
2018-12-21T04:59:43.720Z,1002.65
2018-12-21T05:00:43.686Z,1002.64
2018-12-21T05:01:43.697Z,1002.64
2018-12-21T05:02:43.664Z,1002.67
2018-12-21T05:03:43.653Z,1002.61
2018-12-21T05:04:43.644Z,1002.63
2018-12-21T05:05:43.644Z,1002.62
2018-12-21T05:06:43.631Z,1002.58
2018-12-21T05:07:43.621Z,1002.60
2018-12-21T05:08:43.596Z,1002.62
2018-12-21T05:09:43.585Z,1002.61
2018-12-21T05:10:43.588Z,1002.61
2018-12-21T05:11:43.577Z,1002.56
2018-12-21T05:12:43.551Z,1002.57
2018-12-21T05:13:43.538Z,1002.58
2018-12-21T05:14:43.530Z,1002.59
2018-12-21T05:15:43.524Z,1002.58
2018-12-21T05:16:43.523Z,1002.55
2018-12-21T05:17:43.521Z,1002.52
2018-12-21T05:18:43.487Z,1002.50
2018-12-21T05:19:43.475Z,1002.47
2018-12-21T05:20:43.464Z,1002.50
2018-12-21T05:21:43.476Z,1002.55
2018-12-21T05:22:52.014Z,1002.45
2018-12-21T05:23:44.525Z,1002.42
2018-12-21T05:24:43.428Z,1002.37
2018-12-21T05:25:43.416Z,1002.33
2018-12-21T05:26:43.400Z,1002.33
2018-12-21T05:27:43.397Z,1002.36
2018-12-21T05:28:43.404Z,1002.26
2018-12-21T05:29:43.367Z,1002.26
2018-12-21T05:30:43.356Z,1002.25
2018-12-21T05:31:43.340Z,1002.19
2018-12-21T05:32:43.349Z,1002.20
2018-12-21T05:33:43.322Z,1002.11
2018-12-21T05:34:43.324Z,1002.06
2018-12-21T05:35:43.304Z,1002.06
2018-12-21T05:36:43.296Z,1002.12
2018-12-21T05:37:43.289Z,1002.18
2018-12-21T05:38:43.276Z,1002.09
2018-12-21T05:39:43.258Z,1002.03
2018-12-21T05:40:43.249Z,1002.02
2018-12-21T05:41:43.233Z,1001.99
2018-12-21T05:42:43.236Z,1001.94
2018-12-21T05:43:43.208Z,1001.92
2018-12-21T05:44:43.206Z,1001.91
2018-12-21T05:45:43.199Z,1001.89
2018-12-21T05:46:43.219Z,1001.81
2018-12-21T05:47:43.184Z,1001.77
2018-12-21T05:48:43.151Z,1001.78
2018-12-21T05:49:43.143Z,1001.69
2018-12-21T05:50:43.130Z,1001.67
2018-12-21T05:51:43.135Z,1001.70
2018-12-21T05:52:43.128Z,1001.65
2018-12-21T05:53:43.104Z,1001.66
2018-12-21T05:54:43.089Z,1001.62
2018-12-21T05:55:43.085Z,1001.58
2018-12-21T05:56:43.068Z,1001.50
2018-12-21T05:57:43.064Z,1001.45
2018-12-21T05:58:43.050Z,1001.45
2018-12-21T05:59:43.034Z,1001.43
2018-12-21T06:00:43.021Z,1001.43
2018-12-21T06:01:43.010Z,1001.32
2018-12-21T06:02:43.016Z,1001.27
2018-12-21T06:03:43.001Z,1001.24
2018-12-21T06:04:42.985Z,1001.18
2018-12-21T06:05:42.964Z,1001.18
2018-12-21T06:06:42.955Z,1001.19
2018-12-21T06:07:42.966Z,1001.16
2018-12-21T06:08:42.934Z,1001.12
2018-12-21T06:09:42.961Z,1001.16
2018-12-21T06:10:42.922Z,1001.14
2018-12-21T06:11:42.906Z,1001.16
2018-12-21T06:12:42.909Z,1001.17
2018-12-21T06:13:42.887Z,1001.11
2018-12-21T06:14:42.877Z,1001.14
2018-12-21T06:15:42.862Z,1001.09
2018-12-21T06:16:42.841Z,1001.10
2018-12-21T06:17:42.847Z,1001.08
2018-12-21T06:18:42.828Z,1001.03
2018-12-21T06:19:42.811Z,1000.97
2018-12-21T06:20:42.805Z,1001.02
2018-12-21T06:21:42.789Z,1000.88
2018-12-21T06:22:42.790Z,1000.84
2018-12-21T06:23:42.765Z,1000.79
2018-12-21T06:24:42.774Z,1000.72
2018-12-21T06:25:42.743Z,1000.76
2018-12-21T06:26:42.751Z,1000.62
2018-12-21T06:27:42.776Z,1000.53
2018-12-21T06:28:42.716Z,1000.53
2018-12-21T06:29:42.705Z,1000.51
2018-12-21T06:30:42.688Z,1000.44
2018-12-21T06:31:42.675Z,1000.39
2018-12-21T06:32:42.683Z,1000.32
2018-12-21T06:33:42.663Z,1000.28
2018-12-21T06:34:42.647Z,1000.31
2018-12-21T06:35:42.633Z,1000.26
2018-12-21T06:36:42.621Z,1000.31
2018-12-21T06:37:42.627Z,1000.30
2018-12-21T06:38:42.611Z,1000.27
2018-12-21T06:39:42.611Z,1000.27
2018-12-21T06:40:42.583Z,1000.22
2018-12-21T06:41:42.566Z,1000.23
2018-12-21T06:42:42.569Z,1000.27
2018-12-21T06:43:42.555Z,1000.16
2018-12-21T06:44:42.536Z,1000.21
2018-12-21T06:45:42.524Z,1000.30
2018-12-21T06:46:42.511Z,1000.26
2018-12-21T06:47:42.514Z,1000.20
2018-12-21T06:48:42.490Z,1000.21
2018-12-21T06:49:42.484Z,1000.22
2018-12-21T06:50:42.479Z,1000.22
2018-12-21T06:51:42.495Z,1000.16
2018-12-21T06:52:42.484Z,1000.06
2018-12-21T06:53:42.431Z,1000.10
2018-12-21T06:54:42.421Z,1000.05
2018-12-21T06:55:42.416Z,1000.01
2018-12-21T06:56:42.411Z,1000.04
2018-12-21T06:57:42.403Z,1000.08
2018-12-21T06:58:42.380Z,999.94
2018-12-21T06:59:42.399Z,1000.04
2018-12-21T07:00:42.366Z,999.93
2018-12-21T07:01:42.344Z,1000.01
2018-12-21T07:02:42.346Z,1000.02
2018-12-21T07:03:42.321Z,1000.04
2018-12-21T07:04:42.313Z,1000.01
2018-12-21T07:05:42.302Z,999.94
2018-12-21T07:06:42.300Z,999.96
2018-12-21T07:07:42.302Z,999.96
2018-12-21T07:08:42.266Z,999.88
2018-12-21T07:09:42.256Z,999.92
2018-12-21T07:10:42.250Z,999.87
2018-12-21T07:11:42.233Z,1000.00
2018-12-21T07:12:42.233Z,999.90
2018-12-21T07:13:42.242Z,999.92
2018-12-21T07:14:42.203Z,999.93
2018-12-21T07:15:42.188Z,999.86
2018-12-21T07:16:42.177Z,999.83
2018-12-21T07:17:42.171Z,999.91
2018-12-21T07:18:42.173Z,999.88
2018-12-21T07:19:42.172Z,999.89
2018-12-21T07:20:42.153Z,999.84
2018-12-21T07:21:42.126Z,999.88
2018-12-21T07:22:42.138Z,999.87
2018-12-21T07:23:42.115Z,999.84
2018-12-21T07:24:42.102Z,999.86
2018-12-21T07:25:42.080Z,999.88
2018-12-21T07:26:42.067Z,999.87
2018-12-21T07:27:42.061Z,999.85
2018-12-21T07:28:42.061Z,999.88
2018-12-21T07:29:42.037Z,999.86
2018-12-21T07:30:42.029Z,999.83
2018-12-21T07:31:42.015Z,999.87
2018-12-21T07:32:42.006Z,999.81
2018-12-21T07:33:42.003Z,999.86
2018-12-21T07:34:41.982Z,999.79
2018-12-21T07:35:41.968Z,999.79
2018-12-21T07:36:41.976Z,999.78
2018-12-21T07:37:41.956Z,999.70
2018-12-21T07:38:41.951Z,999.74
2018-12-21T07:39:41.930Z,999.65
2018-12-21T07:40:41.928Z,999.60
2018-12-21T07:41:41.912Z,999.55
2018-12-21T07:42:41.892Z,999.53
2018-12-21T07:43:41.888Z,999.63
2018-12-21T07:44:41.868Z,999.57
2018-12-21T07:45:41.861Z,999.63
2018-12-21T07:46:41.877Z,999.53
2018-12-21T07:47:41.849Z,999.51
2018-12-21T07:48:41.861Z,999.45
2018-12-21T07:49:41.814Z,999.39
2018-12-21T07:50:41.802Z,999.44
2018-12-21T07:51:41.799Z,999.39
2018-12-21T07:52:41.808Z,999.44
2018-12-21T07:53:41.812Z,999.41
2018-12-21T07:54:41.784Z,999.48
2018-12-21T07:55:41.750Z,999.49
2018-12-21T07:56:41.738Z,999.49
2018-12-21T07:57:41.728Z,999.45
2018-12-21T07:58:41.730Z,999.41
2018-12-21T07:59:41.739Z,999.45
2018-12-21T08:00:41.692Z,999.43
2018-12-21T08:01:41.687Z,999.41
2018-12-21T08:02:41.671Z,999.43
2018-12-21T08:03:41.670Z,999.44
2018-12-21T08:04:41.665Z,999.30
2018-12-21T08:05:41.659Z,999.40
2018-12-21T08:06:41.625Z,999.41
2018-12-21T08:07:41.612Z,999.40
2018-12-21T08:08:41.639Z,999.30
2018-12-21T08:09:41.594Z,999.24
2018-12-21T08:10:41.592Z,999.19
2018-12-21T08:11:41.568Z,999.14
2018-12-21T08:12:41.559Z,999.18
2018-12-21T08:13:41.576Z,999.17
2018-12-21T08:14:41.561Z,999.22
2018-12-21T08:15:41.531Z,999.26
2018-12-21T08:16:41.525Z,999.23
2018-12-21T08:17:41.502Z,999.20
2018-12-21T08:18:41.509Z,999.14
2018-12-21T08:19:41.480Z,999.22
2018-12-21T08:20:41.485Z,999.16
2018-12-21T08:21:41.486Z,999.13
2018-12-21T08:22:41.448Z,999.09
2018-12-21T08:23:44.364Z,999.18
2018-12-21T08:24:41.430Z,999.20
2018-12-21T08:25:41.413Z,999.07
2018-12-21T08:26:41.426Z,999.10
2018-12-21T08:27:41.426Z,999.00
2018-12-21T08:28:41.491Z,999.06
2018-12-21T08:29:41.370Z,999.03
2018-12-21T08:30:41.363Z,999.10
2018-12-21T08:31:41.351Z,999.03
2018-12-21T08:32:41.356Z,999.02
2018-12-21T08:33:41.369Z,999.04
2018-12-21T08:34:41.391Z,999.05
2018-12-21T08:35:41.308Z,999.13
2018-12-21T08:36:41.305Z,999.04
2018-12-21T08:37:41.314Z,999.02
2018-12-21T08:38:41.278Z,999.06
2018-12-21T08:39:41.302Z,998.94
2018-12-21T08:40:41.248Z,998.90
2018-12-21T08:41:41.242Z,998.98
2018-12-21T08:42:41.233Z,998.95
2018-12-21T08:43:41.219Z,998.99
2018-12-21T08:44:41.216Z,998.95
2018-12-21T08:45:41.190Z,998.91
2018-12-21T08:46:41.180Z,998.91
2018-12-21T08:47:41.189Z,998.91
2018-12-21T08:48:41.160Z,998.89
2018-12-21T08:49:41.163Z,998.88
2018-12-21T08:50:41.141Z,998.91
2018-12-21T08:51:41.150Z,998.86
2018-12-21T08:52:41.118Z,998.82
2018-12-21T08:53:41.105Z,998.79
2018-12-21T08:54:41.121Z,998.84
2018-12-21T08:55:41.103Z,998.80
2018-12-21T08:56:41.099Z,998.77
2018-12-21T08:57:41.064Z,998.69
2018-12-21T08:58:41.048Z,998.71
2018-12-21T08:59:41.051Z,998.68
2018-12-21T09:00:41.057Z,998.62
2018-12-21T09:01:41.058Z,998.66
2018-12-21T09:02:41.012Z,998.57
2018-12-21T09:03:40.996Z,998.61
2018-12-21T09:04:40.990Z,998.57
2018-12-21T09:05:40.974Z,998.49
2018-12-21T09:06:40.964Z,998.47
2018-12-21T09:07:41.166Z,998.46
2018-12-21T09:08:40.987Z,998.38
2018-12-21T09:09:40.939Z,998.43
2018-12-21T09:10:40.930Z,998.36
2018-12-21T09:11:40.910Z,998.46
2018-12-21T09:12:40.910Z,998.33
2018-12-21T09:13:40.906Z,998.34
2018-12-21T09:14:40.892Z,998.34
2018-12-21T09:15:40.859Z,998.31
2018-12-21T09:16:40.849Z,998.35
2018-12-21T09:17:40.851Z,998.34
2018-12-21T09:18:40.881Z,998.34
2018-12-21T09:19:40.849Z,998.34
2018-12-21T09:20:40.824Z,998.30
2018-12-21T09:21:40.802Z,998.23
2018-12-21T09:22:40.784Z,998.22
2018-12-21T09:23:40.779Z,998.16
2018-12-21T09:24:40.800Z,998.19
2018-12-21T09:25:40.758Z,998.17
2018-12-21T09:26:40.744Z,998.04
2018-12-21T09:27:40.724Z,998.14
2018-12-21T09:28:40.718Z,998.03
2018-12-21T09:29:41.097Z,998.01
2018-12-21T09:30:40.696Z,997.98
2018-12-21T09:31:41.559Z,997.89
2018-12-21T09:32:40.671Z,998.04
2018-12-21T09:33:40.658Z,997.89
2018-12-21T09:34:40.664Z,997.99
2018-12-21T09:35:40.668Z,997.76
2018-12-21T09:36:40.649Z,997.91
2018-12-21T09:37:40.616Z,997.82
2018-12-21T09:38:40.639Z,997.82
2018-12-21T09:39:40.591Z,997.86
2018-12-21T09:40:40.598Z,997.79
2018-12-21T09:41:40.584Z,997.82
2018-12-21T09:42:40.613Z,997.76
2018-12-21T09:43:40.596Z,997.64
2018-12-21T09:44:40.539Z,997.70
2018-12-21T09:45:40.550Z,997.56
2018-12-21T09:46:40.536Z,997.60
2018-12-21T09:47:40.511Z,997.51
2018-12-21T09:48:40.501Z,997.48
2018-12-21T09:49:40.482Z,997.49
2018-12-21T09:50:40.482Z,997.49
2018-12-21T09:51:40.477Z,997.48
2018-12-21T09:52:40.480Z,997.46
2018-12-21T09:53:40.434Z,997.38
2018-12-21T09:54:40.432Z,997.38
2018-12-21T09:55:40.424Z,997.37
2018-12-21T09:56:40.403Z,997.45
2018-12-21T09:57:40.423Z,997.39
2018-12-21T09:58:40.412Z,997.34
2018-12-21T09:59:40.392Z,997.33
2018-12-21T10:00:40.427Z,997.33
2018-12-21T10:01:40.388Z,997.37
2018-12-21T10:02:40.341Z,997.19
2018-12-21T10:03:40.333Z,997.26
2018-12-21T10:04:40.364Z,997.28
2018-12-21T10:05:40.325Z,997.18
2018-12-21T10:06:40.289Z,997.14
2018-12-21T10:07:40.280Z,997.09
2018-12-21T10:08:40.276Z,997.11
2018-12-21T10:09:40.287Z,997.14
2018-12-21T10:10:40.260Z,997.06
2018-12-21T10:11:40.235Z,997.05
2018-12-21T10:12:40.227Z,997.17
2018-12-21T10:13:40.216Z,997.06
2018-12-21T10:14:40.209Z,997.12
2018-12-21T10:15:40.239Z,997.12
2018-12-21T10:16:40.187Z,997.08
2018-12-21T10:17:40.189Z,997.16
2018-12-21T10:18:40.160Z,997.08
2018-12-21T10:19:40.160Z,996.98
2018-12-21T10:20:40.148Z,997.22
2018-12-21T10:21:40.124Z,997.16
2018-12-21T10:22:40.114Z,997.11
2018-12-21T10:23:40.114Z,997.10
2018-12-21T10:24:40.102Z,997.12
2018-12-21T10:25:40.263Z,997.18
2018-12-21T10:26:40.102Z,997.07
2018-12-21T10:27:40.061Z,996.99
2018-12-21T10:28:40.048Z,996.97
2018-12-21T10:29:40.035Z,996.92
2018-12-21T10:30:40.028Z,996.77
2018-12-21T10:31:40.036Z,996.75
2018-12-21T10:32:40.082Z,996.73
2018-12-21T10:33:39.998Z,996.76
2018-12-21T10:34:39.995Z,996.95
2018-12-21T10:35:39.980Z,996.87
2018-12-21T10:36:40.098Z,996.84
2018-12-21T10:37:39.955Z,996.85
2018-12-21T10:38:39.937Z,996.79
2018-12-21T10:39:39.996Z,996.80
2018-12-21T10:40:39.950Z,996.73
2018-12-21T10:41:39.965Z,996.88
2018-12-21T10:42:39.891Z,996.79
2018-12-21T10:43:39.881Z,996.81
2018-12-21T10:44:39.871Z,996.79
2018-12-21T10:45:41.727Z,996.83
2018-12-21T10:46:39.894Z,996.93
2018-12-21T10:47:39.843Z,996.92
2018-12-21T10:48:39.877Z,996.97
2018-12-21T10:49:39.822Z,996.82
2018-12-21T10:50:39.818Z,996.78
2018-12-21T10:51:39.818Z,996.86
2018-12-21T10:52:39.825Z,996.82
2018-12-21T10:53:39.856Z,996.79
2018-12-21T10:54:39.758Z,996.80
2018-12-21T10:55:39.762Z,996.79
2018-12-21T10:56:39.796Z,996.80
2018-12-21T10:57:39.735Z,996.73
2018-12-21T10:58:39.738Z,996.81
2018-12-21T10:59:43.491Z,996.73
2018-12-21T11:00:39.695Z,996.71
2018-12-21T11:01:39.719Z,996.80
2018-12-21T11:02:39.727Z,996.77
2018-12-21T11:03:39.680Z,996.81
2018-12-21T11:04:39.673Z,996.61
2018-12-21T11:05:39.651Z,996.74
2018-12-21T11:06:39.638Z,996.69
2018-12-21T11:07:39.619Z,996.64
2018-12-21T11:08:39.633Z,996.59
2018-12-21T11:09:39.620Z,996.53
2018-12-21T11:10:39.601Z,996.64
2018-12-21T11:11:39.584Z,996.66
2018-12-21T11:12:39.567Z,996.67
2018-12-21T11:13:39.622Z,996.61
2018-12-21T11:14:39.572Z,996.56
2018-12-21T11:15:39.566Z,996.57
2018-12-21T11:16:39.560Z,996.53
2018-12-21T11:17:39.507Z,996.48
2018-12-21T11:18:39.507Z,996.53
2018-12-21T11:19:39.490Z,996.60
2018-12-21T11:20:39.475Z,996.60
2018-12-21T11:21:39.495Z,996.52
2018-12-21T11:22:39.474Z,996.49
2018-12-21T11:23:39.438Z,996.49
2018-12-21T11:24:39.568Z,996.58
2018-12-21T11:25:39.419Z,996.49
2018-12-21T11:26:39.448Z,996.47
2018-12-21T11:27:39.419Z,996.43
2018-12-21T11:28:39.416Z,996.54
2018-12-21T11:29:39.381Z,996.47
2018-12-21T11:30:39.440Z,996.49
2018-12-21T11:31:39.380Z,996.42
2018-12-21T11:32:39.362Z,996.45
2018-12-21T11:33:39.338Z,996.49
2018-12-21T11:34:39.350Z,996.49
2018-12-21T11:35:39.326Z,996.53
2018-12-21T11:36:39.304Z,996.58
2018-12-21T11:37:39.321Z,996.48
2018-12-21T11:38:39.290Z,996.44
2018-12-21T11:39:39.269Z,996.37
2018-12-21T11:40:39.251Z,996.17
2018-12-21T11:41:39.246Z,996.29
2018-12-21T11:42:39.256Z,996.32
2018-12-21T11:43:39.238Z,996.35
2018-12-21T11:44:39.218Z,996.35
2018-12-21T11:45:39.204Z,996.29
2018-12-21T11:46:39.189Z,996.26
2018-12-21T11:47:39.187Z,996.33
2018-12-21T11:48:39.182Z,996.31
2018-12-21T11:49:39.163Z,996.41
2018-12-21T11:50:39.163Z,996.37
2018-12-21T11:51:40.092Z,996.49
2018-12-21T11:52:39.134Z,996.25
2018-12-21T11:53:39.112Z,996.33
2018-12-21T11:54:44.168Z,996.45
2018-12-21T11:55:40.084Z,996.25
2018-12-21T11:56:39.110Z,996.24
2018-12-21T11:57:39.097Z,996.32
2018-12-21T11:58:39.056Z,996.34
2018-12-21T11:59:44.907Z,996.25
2018-12-21T12:00:40.052Z,996.24
2018-12-21T12:01:39.040Z,996.28
2018-12-21T12:02:39.033Z,996.20
2018-12-21T12:03:39.157Z,996.17
2018-12-21T12:04:38.988Z,996.29
2018-12-21T12:05:38.992Z,996.07
2018-12-21T12:06:38.970Z,996.07
2018-12-21T12:07:38.982Z,996.17
2018-12-21T12:08:38.941Z,995.97
2018-12-21T12:09:38.934Z,996.03
2018-12-21T12:10:38.920Z,995.91
2018-12-21T12:11:38.906Z,996.05
2018-12-21T12:12:39.368Z,996.12
2018-12-21T12:13:38.946Z,996.06
2018-12-21T12:14:38.879Z,996.16
2018-12-21T12:15:38.863Z,996.13
2018-12-21T12:16:38.913Z,996.08